Time;durP1;ratioP1;P1;durP2;ratioP2;P2;SDS_P1;SDS_P2;PMS_P1;PMS_P2;Temp;Humidity;BMP_temperature;BMP_pressure;BME280_temperature;BME280_humidity;BME280_pressure;Samples;Min_cycle;Max_cycle;Signal;HPM_P1;HPM_P2
2023/09/24 00:00:32;;;;;;;29.65;10.07;;;;;;;19.94;68.35;92720.69;5090300;28;20197;-80
2023/09/24 00:02:58;;;;;;;15.73;9.30;;;;;;;19.88;66.72;92706.13;5087208;28;20228;-80
2023/09/24 00:05:24;;;;;;;20.30;9.70;;;;;;;19.98;67.25;92711.75;5076192;28;20208;-80
2023/09/24 00:07:49;;;;;;;18.73;10.18;;;;;;;20.01;67.39;92721.69;5062723;28;20255;-80
2023/09/24 00:10:16;;;;;;;26.67;9.68;;;;;;;19.82;68.73;92708.22;5090738;28;20176;-79
2023/09/24 00:12:41;;;;;;;30.45;10.93;;;;;;;20.02;68.55;92719.81;5085697;28;20221;-80
2023/09/24 00:15:08;;;;;;;20.73;9.27;;;;;;;19.98;69.54;92721.59;5081720;28;20189;-80
2023/09/24 00:17:33;;;;;;;23.80;9.85;;;;;;;19.98;69.43;92706.47;5063228;28;20256;-79
2023/09/24 00:19:59;;;;;;;25.30;9.65;;;;;;;19.78;69.38;92702.03;5089631;28;20508;-80
2023/09/24 00:22:24;;;;;;;29.33;9.90;;;;;;;19.90;69.98;92710.00;5082144;28;20187;-80
2023/09/24 00:24:49;;;;;;;30.33;10.57;;;;;;;19.92;70.08;92715.72;5084409;28;20224;-80
2023/09/24 00:27:15;;;;;;;20.02;10.13;;;;;;;19.77;71.00;92700.50;5089700;28;20176;-79
2023/09/24 00:29:40;;;;;;;25.95;10.85;;;;;;;19.88;70.01;92706.91;5088314;28;20323;-80
2023/09/24 00:32:06;;;;;;;26.10;9.40;;;;;;;19.72;70.33;92713.97;5088669;28;20196;-78
2023/09/24 00:34:31;;;;;;;28.50;10.07;;;;;;;19.72;70.26;92708.66;5089174;28;20222;-80
2023/09/24 00:36:57;;;;;;;24.80;10.30;;;;;;;19.63;69.02;92715.97;5088499;28;20200;-80
2023/09/24 00:39:23;;;;;;;30.95;11.02;;;;;;;19.76;67.01;92725.47;5089143;28;20287;-80
2023/09/24 00:41:51;;;;;;;21.67;10.82;;;;;;;19.88;66.44;92727.31;5087544;28;20621;-80
2023/09/24 00:44:17;;;;;;;26.35;10.05;;;;;;;20.01;66.03;92737.59;5089561;28;20227;-80
2023/09/24 00:46:44;;;;;;;17.50;9.85;;;;;;;20.17;66.48;92721.81;5091076;28;20248;-80
2023/09/24 00:49:15;;;;;;;27.05;9.95;;;;;;;20.17;67.67;92727.13;5087251;28;20252;-80
2023/09/24 00:51:41;;;;;;;16.35;9.38;;;;;;;20.11;67.99;92731.06;5083156;28;20183;-79
2023/09/24 00:54:08;;;;;;;29.08;10.60;;;;;;;20.01;69.26;92726.22;5084994;28;20220;-79
2023/09/24 00:56:34;;;;;;;20.05;9.88;;;;;;;20.05;69.38;92719.91;5084287;28;20187;-79
2023/09/24 00:59:00;;;;;;;21.75;10.25;;;;;;;19.98;69.98;92717.06;5087733;28;20210;-79
2023/09/24 01:01:26;;;;;;;32.42;10.80;;;;;;;19.91;71.28;92716.84;5084982;28;20179;-79
2023/09/24 01:03:52;;;;;;;17.05;9.95;;;;;;;19.78;71.36;92696.75;5088589;28;20216;-79
2023/09/24 01:06:18;;;;;;;31.98;10.20;;;;;;;19.84;71.53;92713.97;5087133;28;20175;-79
2023/09/24 01:08:43;;;;;;;20.67;12.27;;;;;;;19.75;71.18;92712.53;5086262;28;20238;-80
2023/09/24 01:11:09;;;;;;;20.20;10.95;;;;;;;19.70;71.33;92700.31;5086835;28;20184;-79
2023/09/24 01:13:45;;;;;;;27.90;10.82;;;;;;;19.68;71.86;92705.16;5088840;28;20223;-79
2023/09/24 01:16:11;;;;;;;26.75;10.23;;;;;;;19.67;71.98;92705.47;5081001;28;20182;-79
2023/09/24 01:18:41;;;;;;;20.63;10.50;;;;;;;19.53;71.23;92703.16;5083012;28;20227;-80
2023/09/24 01:21:15;;;;;;;25.40;10.87;;;;;;;19.49;73.10;92691.66;5089562;28;20197;-79
2023/09/24 01:23:42;;;;;;;28.40;11.07;;;;;;;19.56;71.94;92694.56;5087741;28;20224;-79
2023/09/24 01:26:11;;;;;;;23.57;11.13;;;;;;;19.57;71.87;92690.78;5089477;28;20202;-79
2023/09/24 01:28:37;;;;;;;24.47;10.97;;;;;;;19.37;71.95;92667.84;5087738;28;20215;-80
2023/09/24 01:31:04;;;;;;;27.40;11.27;;;;;;;19.40;73.21;92682.28;5088117;28;20202;-79
2023/09/24 01:33:31;;;;;;;25.77;11.65;;;;;;;19.06;73.10;92618.06;5068559;28;20965;-80
2023/09/24 01:35:57;;;;;;;19.83;10.33;;;;;;;19.39;73.88;92678.88;5087472;28;20680;-78
2023/09/24 01:38:22;;;;;;;20.63;10.90;;;;;;;19.50;73.24;92685.28;5089089;28;20222;-81
2023/09/24 01:40:48;;;;;;;24.10;10.83;;;;;;;19.36;74.00;92684.06;5089205;28;20198;-80
2023/09/24 01:43:14;;;;;;;15.43;10.83;;;;;;;19.39;73.61;92686.03;5088167;28;20226;-80
2023/09/24 01:45:40;;;;;;;29.97;11.27;;;;;;;19.45;71.63;92682.84;5085672;28;20175;-80
2023/09/24 01:48:09;;;;;;;24.00;10.93;;;;;;;19.52;72.38;92674.38;5087659;28;20222;-79
2023/09/24 01:50:36;;;;;;;25.20;10.70;;;;;;;19.59;73.35;92678.00;5089059;28;20263;-80
2023/09/24 01:53:02;;;;;;;23.07;10.97;;;;;;;19.49;73.32;92673.13;5087591;28;20237;-79
2023/09/24 01:55:28;;;;;;;22.10;10.30;;;;;;;19.45;73.76;92671.47;5087308;28;20191;-81
2023/09/24 01:57:55;;;;;;;27.03;11.40;;;;;;;19.48;73.80;92679.53;5088439;28;20235;-80
2023/09/24 02:00:25;;;;;;;19.63;11.33;;;;;;;19.41;73.49;92665.31;5092795;28;20188;-78
2023/09/24 02:02:52;;;;;;;27.53;11.37;;;;;;;19.45;74.40;92680.22;5092603;28;20322;-77
2023/09/24 02:05:19;;;;;;;25.02;10.32;;;;;;;19.45;74.10;92669.63;5079356;28;20185;-78
2023/09/24 02:07:50;;;;;;;16.70;10.60;;;;;;;19.44;74.44;92660.09;5091963;28;20192;-76
2023/09/24 02:10:20;;;;;;;20.90;11.07;;;;;;;19.39;75.55;92670.94;5093018;28;20209;-78
2023/09/24 02:12:46;;;;;;;23.70;11.48;;;;;;;19.47;75.97;92669.28;5091757;28;20215;-77
2023/09/24 02:15:17;;;;;;;29.93;10.83;;;;;;;19.51;75.44;92672.81;5093476;28;20180;-76
2023/09/24 02:17:48;;;;;;;21.40;10.30;;;;;;;19.50;75.26;92671.28;5087272;28;20175;-77
2023/09/24 02:20:31;;;;;;;24.33;9.83;;;;;;;19.45;76.21;92674.91;5092709;28;20191;-77
2023/09/24 02:22:59;;;;;;;20.07;10.17;;;;;;;19.32;75.75;92668.06;5091578;28;20689;-77
2023/09/24 02:25:32;;;;;;;17.47;9.90;;;;;;;19.25;76.00;92667.81;5083475;28;20182;-77
2023/09/24 02:27:58;;;;;;;18.67;10.80;;;;;;;19.27;76.39;92676.19;5087184;28;20222;-77
2023/09/24 02:30:27;;;;;;;20.97;11.40;;;;;;;19.02;76.43;92672.72;5091554;28;20182;-76
2023/09/24 02:32:52;;;;;;;27.13;10.80;;;;;;;19.09;75.94;92669.56;5091685;28;20218;-77
2023/09/24 02:35:17;;;;;;;15.40;9.80;;;;;;;19.03;75.79;92665.56;5091869;28;20198;-77
2023/09/24 02:37:47;;;;;;;21.27;11.57;;;;;;;18.95;76.32;92664.56;5091324;28;20182;-77
2023/09/24 02:40:26;;;;;;;24.63;11.93;;;;;;;19.04;75.09;92664.47;5088785;28;20215;-77
2023/09/24 02:42:53;;;;;;;20.83;11.73;;;;;;;19.09;73.91;92658.97;5089036;28;20907;-77
2023/09/24 02:45:19;;;;;;;19.63;10.93;;;;;;;19.05;73.68;92640.31;5081481;28;20183;-77
2023/09/24 02:47:46;;;;;;;24.50;12.67;;;;;;;19.21;74.87;92672.19;5078392;28;20184;-78
2023/09/24 02:50:15;;;;;;;26.47;11.03;;;;;;;19.23;74.87;92674.53;5092130;28;20221;-77
2023/09/24 02:52:45;;;;;;;22.83;12.63;;;;;;;19.18;76.39;92673.66;5088910;28;20195;-77
2023/09/24 02:55:13;;;;;;;21.37;10.30;;;;;;;19.11;76.93;92672.66;5082557;28;20184;-77
2023/09/24 02:57:42;;;;;;;24.60;11.77;;;;;;;18.95;77.71;92653.19;5074987;28;20186;-76
2023/09/24 03:00:16;;;;;;;28.73;11.03;;;;;;;18.97;78.47;92669.53;5085104;28;20198;-77
2023/09/24 03:02:41;;;;;;;23.67;11.17;;;;;;;18.76;78.37;92645.00;5088614;28;20256;-76
2023/09/24 03:05:10;;;;;;;12.53;10.07;;;;;;;18.90;78.54;92674.56;5091720;28;20195;-77
2023/09/24 03:07:36;;;;;;;23.80;11.57;;;;;;;18.80;77.99;92672.34;5078787;28;20181;-77
2023/09/24 03:10:05;;;;;;;21.33;10.60;;;;;;;18.66;78.82;92671.88;5086144;28;20175;-76
2023/09/24 03:12:31;;;;;;;25.37;12.50;;;;;;;18.59;79.90;92668.97;5087523;28;20219;-76
2023/09/24 03:14:57;;;;;;;21.90;9.83;;;;;;;18.58;80.43;92670.88;5088380;28;20186;-78
2023/09/24 03:17:22;;;;;;;20.93;11.00;;;;;;;18.61;79.80;92672.06;5086766;28;20191;-77
2023/09/24 03:19:48;;;;;;;20.33;10.83;;;;;;;18.64;80.66;92668.78;5087326;28;20224;-77
2023/09/24 03:22:13;;;;;;;23.10;11.13;;;;;;;18.64;81.01;92676.72;5078976;28;20196;-77
2023/09/24 03:24:39;;;;;;;17.83;10.50;;;;;;;18.52;81.17;92674.78;5090943;28;20285;-81
2023/09/24 03:27:05;;;;;;;24.13;11.40;;;;;;;18.48;81.64;92679.19;5067527;28;20250;-78
2023/09/24 03:29:31;;;;;;;20.37;10.83;;;;;;;18.54;81.17;92677.09;5089927;28;20235;-77
2023/09/24 03:31:56;;;;;;;21.93;11.17;;;;;;;18.46;81.15;92677.97;5066814;28;20183;-79
2023/09/24 03:34:22;;;;;;;13.47;11.37;;;;;;;18.45;79.96;92665.84;5085893;28;20228;-77
2023/09/24 03:36:47;;;;;;;22.27;10.57;;;;;;;18.47;80.22;92692.72;5083804;28;20193;-77
2023/09/24 03:39:13;;;;;;;26.87;10.70;;;;;;;18.39;80.39;92686.44;5078347;28;20252;-77
2023/09/24 03:41:38;;;;;;;25.73;11.13;;;;;;;18.48;80.13;92683.69;5089697;28;20178;-77
2023/09/24 03:44:04;;;;;;;28.67;11.50;;;;;;;18.52;79.08;92687.25;5090699;28;20211;-77
2023/09/24 03:46:29;;;;;;;27.63;10.80;;;;;;;18.50;79.87;92678.88;5090995;28;20173;-78
2023/09/24 03:48:55;;;;;;;27.27;11.50;;;;;;;18.37;79.71;92669.28;5090585;28;20222;-78
2023/09/24 03:51:20;;;;;;;23.10;11.17;;;;;;;18.42;78.34;92692.94;5077994;28;20197;-77
2023/09/24 03:53:46;;;;;;;20.80;10.50;;;;;;;18.52;77.98;92698.59;5053157;28;20223;-77
2023/09/24 03:56:11;;;;;;;22.03;11.67;;;;;;;18.60;77.37;92681.13;5086356;28;20663;-77
2023/09/24 03:58:37;;;;;;;19.80;10.47;;;;;;;18.62;77.83;92681.53;5072732;28;20941;-77
2023/09/24 04:01:09;;;;;;;22.97;10.50;;;;;;;18.63;77.30;92696.34;5073044;28;20264;-77
2023/09/24 04:03:37;;;;;;;22.97;10.47;;;;;;;18.63;77.72;92686.50;5090524;28;20297;-77
2023/09/24 04:06:12;;;;;;;26.30;10.30;;;;;;;18.57;77.09;92694.97;5077874;28;20179;-78
2023/09/24 04:08:38;;;;;;;16.87;10.30;;;;;;;18.52;77.85;92698.59;5089286;28;20244;-79
2023/09/24 04:11:09;;;;;;;18.57;10.67;;;;;;;18.47;78.86;92690.09;5089956;28;20187;-79
2023/09/24 04:13:36;;;;;;;21.50;10.60;;;;;;;18.41;80.63;92701.97;5087995;28;20237;-79
2023/09/24 04:16:12;;;;;;;28.97;11.60;;;;;;;18.43;79.95;92705.03;5090870;28;20179;-79
2023/09/24 04:18:41;;;;;;;25.53;11.50;;;;;;;18.42;79.67;92698.22;5082980;28;20255;-79
2023/09/24 04:21:19;;;;;;;23.93;10.83;;;;;;;18.39;81.55;92706.78;5088056;28;20188;-79
2023/09/24 04:23:45;;;;;;;23.13;10.97;;;;;;;18.21;80.82;92715.94;5082939;28;20223;-80
2023/09/24 04:26:21;;;;;;;20.80;10.33;;;;;;;18.31;80.19;92731.38;5080980;28;20218;-79
2023/09/24 04:28:49;;;;;;;28.47;11.83;;;;;;;18.21;81.16;92737.06;5083807;28;20224;-81
2023/09/24 04:31:16;;;;;;;19.77;10.90;;;;;;;18.17;79.58;92752.78;5090247;28;20188;-79
2023/09/24 04:38:59;;;;;;;17.57;11.90;;;;;;;18.40;81.41;92771.78;5088676;27;21021;-79
2023/09/24 04:41:25;;;;;;;22.67;12.53;;;;;;;18.39;80.58;92768.38;5062129;28;20211;-80
2023/09/24 04:43:52;;;;;;;23.80;12.30;;;;;;;18.42;80.48;92762.44;5057283;28;20248;-80
2023/09/24 04:46:18;;;;;;;21.53;10.97;;;;;;;18.54;80.69;92767.00;5057692;28;20481;-79
2023/09/24 04:48:43;;;;;;;23.73;12.70;;;;;;;18.70;81.26;92758.19;5064853;28;20305;-80
2023/09/24 04:51:09;;;;;;;27.13;12.63;;;;;;;18.74;80.98;92769.66;5065535;28;20207;-80
2023/09/24 04:53:35;;;;;;;17.03;11.80;;;;;;;18.78;82.21;92769.78;5061695;28;20224;-79
2023/09/24 04:56:06;;;;;;;27.00;13.13;;;;;;;18.79;81.83;92766.81;5063651;28;20274;-78
2023/09/24 04:58:32;;;;;;;22.47;12.60;;;;;;;18.82;83.25;92773.31;5057093;28;20240;-78
2023/09/24 05:01:07;;;;;;;19.87;12.47;;;;;;;18.85;83.13;92772.66;5061637;28;20191;-78
2023/09/24 05:03:34;;;;;;;21.37;12.40;;;;;;;18.92;83.34;92770.28;5056568;28;20231;-78
2023/09/24 05:06:00;;;;;;;16.23;11.80;;;;;;;19.03;83.35;92766.13;5059418;28;20196;-78
2023/09/24 05:08:26;;;;;;;14.50;12.03;;;;;;;19.02;82.77;92761.91;5062136;28;20238;-77
2023/09/24 05:10:51;;;;;;;23.07;12.83;;;;;;;19.04;83.33;92773.75;5065401;28;20200;-77
2023/09/24 05:13:17;;;;;;;21.77;12.80;;;;;;;19.00;84.05;92761.50;5054756;28;20227;-78
2023/09/24 05:15:53;;;;;;;22.90;12.57;;;;;;;19.15;84.74;92764.31;5060620;28;20199;-77
2023/09/24 05:18:21;;;;;;;23.43;11.60;;;;;;;19.22;84.37;92763.78;5064865;28;20233;-77
2023/09/24 05:20:47;;;;;;;19.33;12.60;;;;;;;19.26;83.43;92763.88;5060103;28;20221;-78
2023/09/24 05:23:12;;;;;;;20.77;11.90;;;;;;;19.31;82.92;92763.69;5059918;28;20227;-77
2023/09/24 05:25:38;;;;;;;21.07;12.27;;;;;;;19.49;82.41;92759.75;5065194;28;20188;-77
2023/09/24 05:28:03;;;;;;;20.83;12.20;;;;;;;19.54;82.13;92755.03;5056930;28;20295;-77
2023/09/24 05:30:29;;;;;;;20.87;12.70;;;;;;;19.59;82.11;92757.47;5066154;28;20185;-77
2023/09/24 05:32:54;;;;;;;20.20;11.60;;;;;;;19.81;81.15;92766.84;5060941;28;20228;-77
2023/09/24 05:35:21;;;;;;;22.93;13.43;;;;;;;19.93;80.68;92772.16;5060595;28;20220;-77
2023/09/24 05:37:47;;;;;;;24.00;12.27;;;;;;;20.00;80.54;92770.50;5058869;28;20227;-77
2023/09/24 05:40:13;;;;;;;24.13;11.90;;;;;;;20.24;79.96;92783.00;5057751;28;20184;-77
2023/09/24 05:42:38;;;;;;;20.80;12.23;;;;;;;20.48;74.91;92778.41;5057136;28;20215;-78
2023/09/24 05:45:04;;;;;;;21.10;11.85;;;;;;;20.67;75.80;92781.25;5056208;28;20599;-77
2023/09/24 05:47:30;;;;;;;29.45;12.13;;;;;;;20.64;75.57;92791.75;5059924;28;20179;-76
2023/09/24 05:49:55;;;;;;;25.20;11.85;;;;;;;20.83;74.27;92801.78;5046680;28;20866;-77
2023/09/24 05:52:21;;;;;;;19.40;11.45;;;;;;;20.77;75.09;92787.97;5041489;28;20198;-77
2023/09/24 05:54:46;;;;;;;24.33;12.38;;;;;;;20.87;73.90;92789.41;5046594;28;20229;-78
2023/09/24 05:57:11;;;;;;;14.93;10.10;;;;;;;21.04;73.00;92789.13;5050988;28;20242;-78
2023/09/24 05:59:37;;;;;;;18.33;11.93;;;;;;;20.88;73.81;92796.25;5047923;28;20215;-78
2023/09/24 06:02:02;;;;;;;20.70;11.98;;;;;;;20.75;73.77;92786.78;5047465;28;20200;-74
2023/09/24 06:04:30;;;;;;;28.02;11.68;;;;;;;20.76;74.06;92790.97;5041072;28;20236;-74
2023/09/24 06:06:55;;;;;;;19.55;11.70;;;;;;;20.94;73.44;92794.88;5046510;28;20202;-74
2023/09/24 06:09:21;;;;;;;22.20;10.07;;;;;;;21.09;71.47;92788.91;5037929;28;20226;-79
2023/09/24 06:11:48;;;;;;;19.23;11.93;;;;;;;21.34;71.47;92798.31;5044990;28;20197;-79
2023/09/24 06:14:14;;;;;;;19.10;11.50;;;;;;;21.20;71.98;92804.00;5049223;28;20227;-78
2023/09/24 06:16:39;;;;;;;17.08;11.60;;;;;;;20.94;72.16;92792.22;5041332;28;20184;-74
2023/09/24 06:19:05;;;;;;;20.35;11.18;;;;;;;21.14;72.55;92799.25;5048009;28;20250;-75
2023/09/24 06:21:31;;;;;;;15.65;10.63;;;;;;;20.83;74.95;92796.47;5045272;28;20188;-74
2023/09/24 06:23:57;;;;;;;21.48;13.40;;;;;;;20.65;74.72;92794.09;5040243;28;20226;-74
2023/09/24 06:26:23;;;;;;;19.73;13.20;;;;;;;20.97;74.11;92791.59;5047319;28;20197;-74
2023/09/24 06:28:49;;;;;;;18.80;11.68;;;;;;;21.34;71.97;92782.38;5048522;28;20229;-74
2023/09/24 06:31:14;;;;;;;24.38;11.82;;;;;;;21.49;71.28;92794.91;5043758;28;20199;-74
2023/09/24 06:33:40;;;;;;;13.65;12.25;;;;;;;21.58;71.55;92792.84;5047370;28;20220;-73
2023/09/24 06:36:05;;;;;;;21.15;12.00;;;;;;;21.72;70.86;92788.69;5042803;28;20254;-74
2023/09/24 06:38:32;;;;;;;21.55;12.30;;;;;;;21.70;70.71;92795.44;5045618;28;20301;-73
2023/09/24 06:41:04;;;;;;;18.75;11.27;;;;;;;21.90;70.16;92797.09;5045554;28;20191;-75
2023/09/24 06:43:33;;;;;;;20.52;12.20;;;;;;;21.97;70.21;92787.44;5048114;28;20260;-73
2023/09/24 06:46:01;;;;;;;21.23;11.50;;;;;;;21.86;69.98;92780.31;5040935;28;20181;-74
2023/09/24 06:48:26;;;;;;;21.35;12.13;;;;;;;21.83;70.72;92788.97;5041894;28;20250;-74
2023/09/24 06:50:55;;;;;;;17.35;11.52;;;;;;;21.87;70.38;92797.78;5044215;28;20183;-74
2023/09/24 06:53:20;;;;;;;32.50;12.57;;;;;;;21.92;70.93;92792.22;5046129;28;20230;-74
2023/09/24 06:55:46;;;;;;;19.90;13.00;;;;;;;22.02;70.21;92791.72;5047918;28;20199;-74
2023/09/24 06:58:12;;;;;;;16.70;11.48;;;;;;;22.06;69.80;92790.69;5047252;28;20318;-74
2023/09/24 07:00:38;;;;;;;21.13;12.30;;;;;;;22.29;69.23;92803.38;5053502;28;20194;-74
2023/09/24 07:03:05;;;;;;;15.25;12.48;;;;;;;22.09;69.79;92797.19;5048604;28;20233;-74
2023/09/24 07:05:31;;;;;;;25.67;13.15;;;;;;;22.03;71.87;92803.88;5047929;28;20187;-74
2023/09/24 07:07:56;;;;;;;19.45;12.00;;;;;;;21.97;71.95;92790.09;5043725;28;20228;-73
2023/09/24 07:10:22;;;;;;;21.67;11.88;;;;;;;22.25;71.10;92795.28;5041549;28;20262;-74
2023/09/24 07:12:47;;;;;;;25.73;12.40;;;;;;;22.63;69.87;92800.72;5042274;28;20192;-74
2023/09/24 07:15:13;;;;;;;18.50;12.63;;;;;;;22.82;68.11;92808.75;5038052;28;20993;-75
2023/09/24 07:17:38;;;;;;;16.53;11.90;;;;;;;22.89;67.58;92803.59;5048810;28;20086;-79
2023/09/24 07:20:05;;;;;;;16.45;10.95;;;;;;;22.86;67.66;92804.28;5048317;28;20199;-75
2023/09/24 07:22:30;;;;;;;15.02;11.88;;;;;;;22.86;68.24;92804.28;5037788;28;20204;-73
2023/09/24 07:24:56;;;;;;;21.55;12.00;;;;;;;22.89;67.87;92813.47;5045078;28;20183;-76
2023/09/24 07:27:22;;;;;;;26.83;13.07;;;;;;;23.01;66.56;92800.78;5040643;28;20207;-80
2023/09/24 07:29:48;;;;;;;18.05;12.32;;;;;;;22.94;68.54;92797.22;5046800;28;20227;-81
2023/09/24 07:32:14;;;;;;;20.10;11.70;;;;;;;23.22;67.52;92811.84;5045591;28;20230;-79
2023/09/24 07:34:40;;;;;;;23.38;13.70;;;;;;;23.29;66.36;92809.38;5038575;28;20225;-78
2023/09/24 07:37:08;;;;;;;17.92;11.20;;;;;;;23.29;66.59;92798.72;5043809;28;20235;-76
2023/09/24 07:39:36;;;;;;;20.67;12.18;;;;;;;23.47;66.75;92797.13;5052287;28;20222;-74
2023/09/24 07:42:02;;;;;;;20.92;12.48;;;;;;;23.40;65.89;92802.34;5047632;28;20212;-76
2023/09/24 07:44:27;;;;;;;21.23;12.15;;;;;;;23.47;66.76;92807.81;5046028;28;20224;-74
2023/09/24 07:46:54;;;;;;;16.60;11.93;;;;;;;23.73;65.61;92791.91;5051560;28;20823;-75
2023/09/24 07:49:19;;;;;;;21.77;11.82;;;;;;;23.85;65.13;92814.97;5047075;28;20260;-73
2023/09/24 07:51:45;;;;;;;22.85;12.32;;;;;;;23.60;65.87;92803.09;5045295;28;20175;-72
2023/09/24 07:54:10;;;;;;;24.98;12.18;;;;;;;24.09;64.57;92814.66;5043234;28;20228;-72
2023/09/24 07:56:41;;;;;;;24.38;12.05;;;;;;;23.57;65.91;92807.25;5041931;28;20256;-83
2023/09/24 07:59:06;;;;;;;19.58;12.25;;;;;;;23.33;67.45;92802.19;5048603;28;20279;-80
2023/09/24 08:01:32;;;;;;;23.88;13.07;;;;;;;23.13;67.50;92808.63;5047469;28;20181;-80
2023/09/24 08:03:58;;;;;;;14.20;12.38;;;;;;;23.33;68.31;92802.19;5044312;28;20218;-76
2023/09/24 08:06:23;;;;;;;18.90;12.80;;;;;;;23.69;67.73;92799.06;5046611;28;20282;-74
2023/09/24 08:08:49;;;;;;;20.33;12.20;;;;;;;23.99;66.08;92801.13;5035761;28;20237;-79
2023/09/24 08:11:14;;;;;;;20.67;11.40;;;;;;;24.36;61.79;92789.53;5044861;28;20778;-81
2023/09/24 08:13:39;;;;;;;19.77;11.93;;;;;;;24.65;59.73;92790.72;5048144;28;20232;-80
2023/09/24 08:16:05;;;;;;;19.75;12.27;;;;;;;24.86;59.48;92801.69;5043062;28;20176;-83
2023/09/24 08:18:30;;;;;;;19.95;12.43;;;;;;;25.08;59.46;92793.59;5048215;28;20232;-78
2023/09/24 08:20:56;;;;;;;28.00;13.38;;;;;;;25.18;57.13;92790.28;5040927;28;20192;-73
2023/09/24 08:23:23;;;;;;;26.10;12.02;;;;;;;25.19;55.95;92785.72;5050045;28;20231;-73
2023/09/24 08:25:52;;;;;;;15.05;11.98;;;;;;;25.43;56.79;92774.56;5040056;28;20188;-74
2023/09/24 08:28:18;;;;;;;22.77;12.23;;;;;;;25.71;55.64;92777.53;5055108;28;20255;-76
2023/09/24 08:30:44;;;;;;;21.55;12.05;;;;;;;25.69;55.88;92773.69;5049964;28;20173;-76
2023/09/24 08:33:09;;;;;;;22.50;12.00;;;;;;;25.97;55.41;92777.38;5047731;28;20259;-76
2023/09/24 08:35:39;;;;;;;19.92;11.02;;;;;;;26.06;54.39;92777.88;5048842;28;20204;-74
2023/09/24 08:38:05;;;;;;;24.85;11.70;;;;;;;26.05;54.26;92772.91;5047705;28;20243;-80
2023/09/24 08:40:31;;;;;;;17.42;11.35;;;;;;;25.96;54.03;92770.47;5044461;28;20181;-76
2023/09/24 08:42:57;;;;;;;17.10;10.82;;;;;;;26.03;54.72;92773.25;5036952;28;20263;-73
2023/09/24 08:45:31;;;;;;;19.05;11.50;;;;;;;26.17;54.87;92776.06;5046244;28;20182;-73
2023/09/24 08:47:59;;;;;;;28.08;11.32;;;;;;;26.12;52.71;92776.41;5046995;28;20249;-73
2023/09/24 08:50:25;;;;;;;26.92;11.73;;;;;;;26.13;53.00;92766.47;5047271;28;20190;-73
2023/09/24 08:52:51;;;;;;;26.77;12.13;;;;;;;26.06;53.02;92767.16;5047028;28;20987;-76
2023/09/24 08:55:16;;;;;;;19.42;10.93;;;;;;;25.94;53.56;92763.97;5047206;28;20205;-73
2023/09/24 08:57:44;;;;;;;23.20;11.18;;;;;;;25.81;54.28;92776.84;5047602;28;20278;-75
2023/09/24 09:00:11;;;;;;;13.93;11.02;;;;;;;25.80;54.71;92769.97;5035356;28;20193;-77
2023/09/24 09:02:40;;;;;;;20.75;11.43;;;;;;;25.95;54.49;92770.84;5047636;28;20252;-78
2023/09/24 09:05:11;;;;;;;15.07;11.52;;;;;;;26.14;53.92;92768.00;5046901;28;20185;-77
2023/09/24 09:07:37;;;;;;;26.42;12.27;;;;;;;26.18;54.02;92769.56;5048037;28;20242;-75
2023/09/24 09:10:03;;;;;;;22.50;11.10;;;;;;;26.24;54.02;92762.72;5047538;28;20193;-74
2023/09/24 09:12:29;;;;;;;28.35;11.77;;;;;;;26.14;53.81;92763.41;5045651;28;20206;-75
2023/09/24 09:14:57;;;;;;;20.70;10.60;;;;;;;26.21;53.10;92758.09;5035926;28;20228;-77
2023/09/24 09:17:24;;;;;;;18.20;11.40;;;;;;;26.16;54.17;92765.72;5036234;28;20203;-77
2023/09/24 09:19:55;;;;;;;20.75;11.38;;;;;;;26.16;54.04;92761.16;5044107;28;20229;-76
2023/09/24 09:22:26;;;;;;;25.33;12.35;;;;;;;26.11;53.95;92747.31;5047955;28;20190;-78
2023/09/24 09:25:04;;;;;;;21.75;11.68;;;;;;;26.19;54.36;92760.41;5049164;28;20214;-75
2023/09/24 09:27:37;;;;;;;20.95;11.88;;;;;;;26.30;54.06;92763.94;5049527;28;20239;-78
2023/09/24 09:30:15;;;;;;;14.38;10.80;;;;;;;26.29;54.24;92767.72;5045695;28;20221;-75
2023/09/24 09:32:42;;;;;;;21.65;11.57;;;;;;;26.30;54.82;92761.25;5050964;28;20750;-75
2023/09/24 09:35:08;;;;;;;19.55;10.30;;;;;;;26.27;53.87;92756.63;5049895;28;20747;-75
2023/09/24 09:37:33;;;;;;;29.13;11.63;;;;;;;26.35;54.31;92760.88;5051016;28;20225;-75
2023/09/24 09:39:59;;;;;;;20.27;12.02;;;;;;;26.27;52.92;92756.63;5050409;28;20186;-78
2023/09/24 09:42:25;;;;;;;16.02;10.90;;;;;;;26.37;53.76;92760.50;5049224;28;20178;-76
2023/09/24 09:44:51;;;;;;;18.23;12.07;;;;;;;26.35;54.01;92758.22;5048807;28;20217;-80
2023/09/24 09:47:20;;;;;;;22.65;10.82;;;;;;;26.43;53.62;92762.47;5050367;28;20187;-77
2023/09/24 09:49:58;;;;;;;21.60;11.10;;;;;;;26.74;52.98;92763.88;5051243;28;20233;-75
2023/09/24 09:52:35;;;;;;;14.60;10.57;;;;;;;26.78;52.93;92761.97;5050957;28;20189;-78
2023/09/24 09:55:06;;;;;;;17.25;10.82;;;;;;;26.78;53.13;92775.34;5045460;28;20217;-77
2023/09/24 09:57:33;;;;;;;21.20;11.32;;;;;;;26.72;52.88;92777.59;5047612;28;20214;-77
2023/09/24 10:00:05;;;;;;;22.27;12.15;;;;;;;26.87;52.51;92780.34;5049408;28;20186;-76
2023/09/24 10:02:32;;;;;;;20.60;11.93;;;;;;;26.90;53.16;92776.97;5043225;28;20178;-76
2023/09/24 10:04:59;;;;;;;22.95;11.48;;;;;;;26.97;52.77;92776.97;5043878;28;20179;-77
2023/09/24 10:07:24;;;;;;;17.25;13.07;;;;;;;26.78;53.47;92772.69;5051937;28;20197;-77
2023/09/24 10:09:50;;;;;;;18.77;11.50;;;;;;;26.99;53.18;92780.06;5042464;28;20218;-77
2023/09/24 10:12:36;;;;;;;21.67;11.07;;;;;;;26.92;52.30;92774.66;5037568;28;20246;-77
2023/09/24 10:15:27;;;;;;;15.68;11.55;;;;;;;26.85;52.95;92780.00;5049640;28;20275;-78
2023/09/24 10:18:11;;;;;;;23.02;12.75;;;;;;;26.79;52.96;92776.88;5041727;28;21086;-78
2023/09/24 10:20:48;;;;;;;17.17;11.85;;;;;;;26.58;52.97;92782.09;5047316;28;20495;-77
2023/09/24 10:23:28;;;;;;;21.50;11.60;;;;;;;26.59;52.94;92780.94;5050947;28;20238;-77
2023/09/24 10:25:56;;;;;;;27.67;12.88;;;;;;;26.35;54.12;92776.94;5042256;28;20193;-77
2023/09/24 10:28:42;;;;;;;20.85;10.98;;;;;;;26.07;54.13;92733.91;5055669;28;20233;-77
2023/09/24 10:31:09;;;;;;;24.10;11.77;;;;;;;26.45;54.60;92773.59;5039087;28;20198;-78
2023/09/24 10:33:53;;;;;;;17.98;11.30;;;;;;;26.48;54.67;92775.53;5049581;28;20253;-78
2023/09/24 10:36:26;;;;;;;20.88;11.32;;;;;;;26.59;54.86;92765.66;5046405;28;20186;-78
2023/09/24 10:39:11;;;;;;;19.38;10.77;;;;;;;26.62;54.25;92770.25;5036220;28;20223;-77
2023/09/24 10:42:09;;;;;;;14.85;11.00;;;;;;;26.67;53.04;92769.94;5041910;28;20194;-77
2023/09/24 10:44:35;;;;;;;19.80;10.75;;;;;;;26.54;53.15;92771.34;5052832;28;20237;-77
2023/09/24 10:47:27;;;;;;;15.30;10.93;;;;;;;26.46;53.54;92729.59;5049391;28;20177;-78
2023/09/24 10:50:04;;;;;;;14.95;11.32;;;;;;;26.72;54.20;92753.50;5057355;28;21019;-77
2023/09/24 10:52:45;;;;;;;18.23;10.70;;;;;;;26.85;52.49;92750.50;5039305;28;20253;-80
2023/09/24 10:55:11;;;;;;;14.48;10.70;;;;;;;26.81;53.33;92747.81;5049776;28;20257;-77
2023/09/24 10:57:37;;;;;;;28.42;11.60;;;;;;;26.83;53.31;92739.41;5049247;28;20202;-77
2023/09/24 11:00:04;;;;;;;24.85;11.02;;;;;;;26.84;52.53;92748.97;5037907;28;20190;-77
2023/09/24 11:02:29;;;;;;;18.27;10.80;;;;;;;26.81;51.94;92749.72;5050577;28;20189;-73
2023/09/24 11:05:01;;;;;;;23.77;12.00;;;;;;;26.80;52.87;92748.97;5047535;28;20936;-78
2023/09/24 11:07:26;;;;;;;18.75;11.00;;;;;;;26.74;52.22;92742.44;5042957;28;20189;-77
2023/09/24 11:09:51;;;;;;;14.25;9.98;;;;;;;26.73;52.94;92746.22;5056023;28;20241;-77
2023/09/24 11:12:17;;;;;;;13.73;11.02;;;;;;;26.76;52.55;92744.72;5035467;28;20195;-78
2023/09/24 11:14:52;;;;;;;14.80;10.60;;;;;;;26.80;52.73;92738.25;5052826;28;20214;-77
2023/09/24 11:17:18;;;;;;;15.70;10.85;;;;;;;26.72;52.95;92734.00;5050861;28;20213;-79
2023/09/24 11:19:45;;;;;;;23.25;11.43;;;;;;;26.89;52.11;92737.88;5038026;28;20226;-78
2023/09/24 11:22:18;;;;;;;18.17;10.63;;;;;;;26.80;53.27;92735.56;5045962;28;20186;-79
2023/09/24 11:24:44;;;;;;;17.90;10.25;;;;;;;26.88;53.20;92744.41;5045154;28;20854;-78